createdAt,value
2022-10-05T00:00:47.844Z,99742.17
2022-10-05T00:03:36.214Z,99738.48
2022-10-05T00:06:04.629Z,99741.34
2022-10-05T00:08:34.085Z,99746.70
2022-10-05T00:11:01.192Z,99744.20
2022-10-05T00:13:29.856Z,99730.75
2022-10-05T00:16:16.421Z,99731.70
2022-10-05T00:18:47.682Z,99733.53
2022-10-05T00:21:21.253Z,99730.67
2022-10-05T00:23:48.924Z,99730.27
2022-10-05T00:26:21.059Z,99727.14
2022-10-05T00:28:48.297Z,99720.74
2022-10-05T00:31:19.461Z,99716.95
2022-10-05T00:33:47.630Z,99716.85
2022-10-05T00:36:14.630Z,99709.27
2022-10-05T00:38:42.307Z,99709.79
2022-10-05T00:41:13.344Z,99709.58
2022-10-05T00:43:39.910Z,99709.61
2022-10-05T00:46:19.413Z,99709.67
2022-10-05T00:49:13.469Z,99712.00
2022-10-05T00:51:43.914Z,99717.96
2022-10-05T00:54:46.320Z,99718.20
2022-10-05T00:57:33.556Z,99713.45
2022-10-05T01:00:08.560Z,99708.87
2022-10-05T01:03:40.980Z,99704.06
2022-10-05T01:06:59.528Z,99702.85
2022-10-05T01:09:53.436Z,99700.06
2022-10-05T01:12:43.475Z,99686.59
2022-10-05T01:15:28.841Z,99688.36
2022-10-05T01:18:13.106Z,99698.29
2022-10-05T01:21:15.133Z,99694.89
2022-10-05T01:24:17.051Z,99690.57
2022-10-05T01:26:59.275Z,99688.45
2022-10-05T01:29:48.471Z,99692.98
2022-10-05T01:32:19.420Z,99683.91
2022-10-05T01:35:07.991Z,99682.25
2022-10-05T01:37:52.441Z,99681.74
2022-10-05T01:40:36.807Z,99681.52
2022-10-05T01:43:25.052Z,99687.42
2022-10-05T01:45:58.709Z,99682.97
2022-10-05T01:48:33.131Z,99672.78
2022-10-05T01:51:26.615Z,99676.02
2022-10-05T01:54:10.633Z,99682.05
2022-10-05T01:57:09.457Z,99682.91
2022-10-05T01:59:54.626Z,99694.66
2022-10-05T02:02:25.396Z,99695.59
2022-10-05T02:05:04.000Z,99702.76
2022-10-05T02:07:55.020Z,99704.70
2022-10-05T02:11:05.491Z,99713.80
2022-10-05T02:13:49.105Z,99705.46
2022-10-05T02:16:27.486Z,99707.36
2022-10-05T02:19:21.858Z,99721.38
2022-10-05T02:22:14.924Z,99719.96
2022-10-05T02:24:51.155Z,99710.74
2022-10-05T02:27:25.784Z,99703.02
2022-10-05T02:30:01.635Z,99699.86
2022-10-05T02:33:08.575Z,99711.92
2022-10-05T02:35:36.942Z,99712.20
2022-10-05T02:38:19.228Z,99705.24
2022-10-05T02:41:10.814Z,99688.30
2022-10-05T02:43:55.948Z,99686.92
2022-10-05T02:46:43.758Z,99685.71
2022-10-05T02:49:27.923Z,99679.54
2022-10-05T02:52:34.176Z,99677.20
2022-10-05T02:55:25.264Z,99679.60
2022-10-05T02:58:28.504Z,99678.93
2022-10-05T03:01:07.014Z,99677.84
2022-10-05T03:03:45.161Z,99674.57
2022-10-05T03:06:27.804Z,99670.11
2022-10-05T03:09:04.812Z,99663.08
2022-10-05T03:12:01.435Z,99662.79
2022-10-05T03:14:46.742Z,99661.29
2022-10-05T03:17:21.020Z,99659.80
2022-10-05T03:19:57.179Z,99668.13
2022-10-05T03:22:47.060Z,99666.88
2022-10-05T03:25:47.755Z,99668.52
2022-10-05T03:28:28.021Z,99672.64
2022-10-05T03:30:56.201Z,99668.48
2022-10-05T03:33:30.312Z,99664.98
2022-10-05T03:35:59.141Z,99675.34
2022-10-05T03:38:42.671Z,99672.28
2022-10-05T03:41:16.094Z,99665.15
2022-10-05T03:44:15.927Z,99670.46
2022-10-05T03:47:02.998Z,99664.89
2022-10-05T03:50:26.741Z,99657.99
2022-10-05T03:53:04.230Z,99659.53
2022-10-05T03:55:59.723Z,99650.80
2022-10-05T03:58:57.607Z,99648.05
2022-10-05T04:01:41.971Z,99639.36
2022-10-05T04:04:19.131Z,99624.64
2022-10-05T04:06:49.961Z,99621.77
2022-10-05T04:09:39.694Z,99619.06
2022-10-05T04:12:29.998Z,99626.98
2022-10-05T04:15:25.729Z,99637.20
2022-10-05T04:18:25.592Z,99641.90
2022-10-05T04:21:00.230Z,99651.04
2022-10-05T04:23:44.639Z,99656.81
2022-10-05T04:26:33.979Z,99655.86
2022-10-05T04:29:06.586Z,99652.21
2022-10-05T04:31:47.340Z,99648.11
2022-10-05T04:34:42.898Z,99648.83
2022-10-05T04:37:21.970Z,99646.30
2022-10-05T04:39:59.623Z,99638.02
2022-10-05T04:42:43.023Z,99640.19
2022-10-05T04:45:39.117Z,99638.83
2022-10-05T04:48:27.090Z,99636.46
2022-10-05T04:51:10.420Z,99637.98
2022-10-05T04:53:51.345Z,99637.30
2022-10-05T04:56:49.826Z,99637.70
2022-10-05T04:59:51.640Z,99636.02
2022-10-05T05:02:34.100Z,99638.35
2022-10-05T05:05:27.853Z,99645.48
2022-10-05T05:08:30.117Z,99649.04
2022-10-05T05:11:13.742Z,99647.15
2022-10-05T05:13:57.033Z,99657.94
2022-10-05T05:16:43.291Z,99660.86
2022-10-05T05:19:32.556Z,99662.55
2022-10-05T05:22:04.404Z,99658.19
2022-10-05T05:25:05.915Z,99662.78
2022-10-05T05:27:48.159Z,99664.62
2022-10-05T05:30:29.907Z,99659.27
2022-10-05T05:33:16.669Z,99673.48
2022-10-05T05:35:50.668Z,99678.34
2022-10-05T05:38:33.578Z,99678.83
2022-10-05T05:41:12.084Z,99670.41
2022-10-05T05:43:41.786Z,99662.75
2022-10-05T05:46:34.019Z,99660.36
2022-10-05T05:49:53.184Z,99655.05
2022-10-05T05:52:28.302Z,99654.23
2022-10-05T05:55:08.009Z,99654.73
2022-10-05T05:57:43.478Z,99659.51
2022-10-05T06:00:14.986Z,99666.69
2022-10-05T06:03:13.251Z,99662.83
2022-10-05T06:05:50.181Z,99659.69
2022-10-05T06:09:03.104Z,99659.20
2022-10-05T06:11:50.517Z,99658.24
2022-10-05T06:14:39.974Z,99655.68
2022-10-05T06:17:35.330Z,99649.92
2022-10-05T06:20:11.641Z,99644.45
2022-10-05T06:22:45.085Z,99643.83
2022-10-05T06:25:20.267Z,99644.80
2022-10-05T06:28:15.249Z,99651.84
2022-10-05T06:31:12.530Z,99649.02
2022-10-05T06:33:54.189Z,99651.92
2022-10-05T06:36:52.963Z,99653.41
2022-10-05T06:39:36.669Z,99659.13
2022-10-05T06:42:21.892Z,99662.58
2022-10-05T06:45:55.092Z,99664.36
2022-10-05T06:49:18.552Z,99658.45
2022-10-05T06:52:25.453Z,99658.86
2022-10-05T06:55:21.049Z,99665.76
2022-10-05T06:58:08.079Z,99666.83
2022-10-05T07:00:54.322Z,99664.32
2022-10-05T07:03:35.491Z,99668.56
2022-10-05T07:06:27.056Z,99672.82
2022-10-05T07:09:21.186Z,99677.85
2022-10-05T07:12:22.132Z,99683.72
2022-10-05T07:15:06.762Z,99686.73
2022-10-05T07:17:38.580Z,99690.58
2022-10-05T07:20:17.376Z,99692.19
2022-10-05T07:23:19.793Z,99681.79
2022-10-05T07:26:00.075Z,99681.23
2022-10-05T07:28:44.316Z,99674.26
2022-10-05T07:31:40.121Z,99680.31
2022-10-05T07:34:47.810Z,99675.66
2022-10-05T07:37:55.378Z,99684.88
2022-10-05T07:40:57.237Z,99696.01
2022-10-05T07:44:01.060Z,99691.77
2022-10-05T07:46:51.285Z,99693.73
2022-10-05T07:49:26.764Z,99692.90
2022-10-05T07:52:00.673Z,99684.56
2022-10-05T07:54:47.225Z,99686.13
2022-10-05T07:57:34.041Z,99677.77
2022-10-05T08:00:18.089Z,99676.17
2022-10-05T08:02:49.084Z,99674.46
2022-10-05T08:05:26.911Z,99676.13
2022-10-05T08:08:19.664Z,99675.14
2022-10-05T08:11:09.631Z,99672.55
2022-10-05T08:13:42.099Z,99669.19
2022-10-05T08:16:12.763Z,99662.80
2022-10-05T08:19:08.492Z,99663.72
2022-10-05T08:21:42.701Z,99661.02
2022-10-05T08:24:22.711Z,99665.17
2022-10-05T08:27:10.567Z,99661.45
2022-10-05T08:30:12.455Z,99663.27
2022-10-05T08:33:05.916Z,99668.92
2022-10-05T08:35:44.337Z,99670.77
2022-10-05T08:38:18.857Z,99671.58
2022-10-05T08:41:17.528Z,99670.90
2022-10-05T08:44:26.697Z,99667.10
2022-10-05T08:47:09.890Z,99662.41
2022-10-05T08:49:41.479Z,99661.63
2022-10-05T08:52:29.621Z,99657.36
2022-10-05T08:55:27.401Z,99651.25
2022-10-05T08:58:04.263Z,99649.30
2022-10-05T09:01:00.009Z,99647.05
2022-10-05T09:03:42.718Z,99649.05
2022-10-05T09:06:48.054Z,99654.89
2022-10-05T09:10:02.062Z,99651.68
2022-10-05T09:12:45.231Z,99647.12
2022-10-05T09:15:28.645Z,99644.34
2022-10-05T09:18:17.717Z,99638.90
2022-10-05T09:20:57.830Z,99644.56
2022-10-05T09:23:43.035Z,99639.39
2022-10-05T09:26:50.239Z,99638.69
2022-10-05T09:30:12.708Z,99637.80
2022-10-05T09:32:52.607Z,99638.11
2022-10-05T09:35:51.789Z,99639.21
2022-10-05T09:38:41.435Z,99640.48
2022-10-05T09:41:28.012Z,99637.95
2022-10-05T09:44:15.055Z,99639.38
2022-10-05T09:47:01.648Z,99638.25
2022-10-05T09:49:48.119Z,99634.10
2022-10-05T09:52:41.012Z,99636.55
2022-10-05T09:55:28.153Z,99638.25
2022-10-05T09:58:22.424Z,99638.58
2022-10-05T10:01:03.647Z,99633.02
2022-10-05T10:03:59.000Z,99635.02
2022-10-05T10:06:29.968Z,99636.29
2022-10-05T10:09:10.286Z,99640.04
2022-10-05T10:11:57.396Z,99640.78
2022-10-05T10:15:07.380Z,99647.60
2022-10-05T10:18:04.437Z,99647.09
2022-10-05T10:20:50.752Z,99651.25
2022-10-05T10:23:40.803Z,99654.13
2022-10-05T10:26:14.654Z,99662.15
2022-10-05T10:29:06.841Z,99662.81
2022-10-05T10:31:44.073Z,99663.39
2022-10-05T10:34:15.082Z,99667.22
2022-10-05T10:37:02.388Z,99668.33
2022-10-05T10:39:55.662Z,99667.63
2022-10-05T10:42:46.695Z,99669.30
2022-10-05T10:45:53.859Z,99660.88
2022-10-05T10:48:31.196Z,99656.64
2022-10-05T10:51:14.411Z,99657.48
2022-10-05T10:54:02.782Z,99652.52
2022-10-05T10:57:19.097Z,99645.69
2022-10-05T10:59:53.096Z,99647.86
2022-10-05T11:03:08.546Z,99644.67
2022-10-05T11:06:07.783Z,99644.84
2022-10-05T11:08:51.173Z,99637.23
2022-10-05T11:11:27.852Z,99628.31
2022-10-05T11:14:04.756Z,99626.23
2022-10-05T11:17:11.683Z,99629.25
2022-10-05T11:19:40.283Z,99625.22
2022-10-05T11:22:34.892Z,99622.36
2022-10-05T11:25:24.090Z,99619.68
2022-10-05T11:28:14.400Z,99616.13
2022-10-05T11:31:10.929Z,99615.80
2022-10-05T11:33:59.323Z,99605.61
2022-10-05T11:36:38.258Z,99607.33
2022-10-05T11:39:28.878Z,99604.80
2022-10-05T11:42:28.154Z,99604.90
2022-10-05T11:45:24.251Z,99606.02
2022-10-05T11:48:29.885Z,99602.69
2022-10-05T11:51:16.460Z,99603.05
2022-10-05T11:54:17.546Z,99600.11
2022-10-05T11:56:53.850Z,99603.45
2022-10-05T11:59:56.661Z,99598.70
2022-10-05T12:02:44.745Z,99594.59
2022-10-05T12:05:33.494Z,99589.80
2022-10-05T12:08:08.301Z,99590.99
2022-10-05T12:11:04.257Z,99587.19
2022-10-05T12:13:52.572Z,99589.29
2022-10-05T12:16:36.926Z,99592.34
2022-10-05T12:19:18.436Z,99595.77
2022-10-05T12:21:52.156Z,99601.67
2022-10-05T12:24:29.135Z,99594.73
2022-10-05T12:27:12.017Z,99588.05
2022-10-05T12:29:42.850Z,99589.77
2022-10-05T12:32:21.171Z,99587.77
2022-10-05T12:35:36.218Z,99579.06
2022-10-05T12:38:25.661Z,99586.92
2022-10-05T12:41:28.885Z,99581.59
2022-10-05T12:44:31.710Z,99570.77
2022-10-05T12:47:21.335Z,99569.32
2022-10-05T12:50:02.523Z,99569.19
2022-10-05T12:52:49.277Z,99563.01
2022-10-05T12:55:34.977Z,99563.55
2022-10-05T12:58:09.336Z,99566.11
2022-10-05T13:00:48.515Z,99572.81
2022-10-05T13:03:34.733Z,99570.80
2022-10-05T13:06:17.837Z,99568.23
2022-10-05T13:08:56.771Z,99576.08
2022-10-05T13:11:30.987Z,99580.64
2022-10-05T13:14:23.604Z,99572.20
2022-10-05T13:16:59.759Z,99572.83
2022-10-05T13:19:48.423Z,99560.34
2022-10-05T13:22:30.705Z,99560.41
2022-10-05T13:25:20.668Z,99562.61
2022-10-05T13:28:14.894Z,99558.43
2022-10-05T13:30:52.906Z,99557.95
2022-10-05T13:33:27.499Z,99558.95
2022-10-05T13:36:20.906Z,99555.55
2022-10-05T13:39:00.817Z,99546.79
2022-10-05T13:41:50.433Z,99543.07
2022-10-05T13:44:27.712Z,99536.95
2022-10-05T13:47:05.638Z,99535.20
2022-10-05T13:49:50.967Z,99534.77
2022-10-05T13:52:19.025Z,99528.52
2022-10-05T13:55:20.920Z,99528.58
2022-10-05T13:58:15.349Z,99530.73
2022-10-05T14:01:07.635Z,99535.46
2022-10-05T14:03:38.415Z,99533.77
2022-10-05T14:06:27.722Z,99531.62
2022-10-05T14:08:57.868Z,99530.90
2022-10-05T14:11:35.006Z,99524.88
2022-10-05T14:14:12.669Z,99523.62
2022-10-05T14:16:51.226Z,99522.96
2022-10-05T14:19:27.658Z,99518.41
2022-10-05T14:22:02.273Z,99515.36
2022-10-05T14:24:45.088Z,99513.88
2022-10-05T14:27:24.026Z,99511.37
2022-10-05T14:29:57.314Z,99504.63
2022-10-05T14:32:30.257Z,99501.39
2022-10-05T14:35:14.119Z,99504.73
2022-10-05T14:37:56.494Z,99507.25
2022-10-05T14:40:31.945Z,99507.14
2022-10-05T14:43:17.637Z,99512.76
2022-10-05T14:46:00.831Z,99507.23
2022-10-05T14:48:41.163Z,99510.38
2022-10-05T14:51:30.535Z,99512.80
2022-10-05T14:54:20.555Z,99513.43
2022-10-05T14:57:04.860Z,99514.70
2022-10-05T15:00:17.666Z,99513.77
2022-10-05T15:03:07.173Z,99505.29
2022-10-05T15:05:48.253Z,99502.89
2022-10-05T15:08:18.788Z,99501.79
2022-10-05T15:10:52.818Z,99500.02
2022-10-05T15:13:24.479Z,99499.95
2022-10-05T15:15:57.016Z,99494.09
2022-10-05T15:18:37.449Z,99492.80
2022-10-05T15:21:33.217Z,99490.81
2022-10-05T15:24:09.382Z,99482.89
2022-10-05T15:26:53.868Z,99473.83
2022-10-05T15:29:47.315Z,99470.16
2022-10-05T15:32:41.889Z,99464.66
2022-10-05T15:35:37.170Z,99466.10
2022-10-05T15:38:29.281Z,99474.30
2022-10-05T15:41:23.798Z,99469.86
2022-10-05T15:44:21.549Z,99465.85
2022-10-05T15:47:19.049Z,99457.95
2022-10-05T15:50:13.842Z,99454.06
2022-10-05T15:52:56.297Z,99455.20
2022-10-05T15:55:35.634Z,99457.39
2022-10-05T15:58:31.342Z,99461.14
2022-10-05T16:01:10.417Z,99459.90
2022-10-05T16:03:44.906Z,99459.36
2022-10-05T16:07:03.964Z,99454.52
2022-10-05T16:10:01.575Z,99450.09
2022-10-05T16:12:40.182Z,99449.52
2022-10-05T16:15:26.557Z,99438.59
2022-10-05T16:18:18.714Z,99432.96
2022-10-05T16:20:53.394Z,99433.02
2022-10-05T16:23:27.979Z,99437.63
2022-10-05T16:26:14.758Z,99441.14
2022-10-05T16:29:02.843Z,99444.57
2022-10-05T16:31:39.550Z,99445.32
2022-10-05T16:34:17.447Z,99445.20
2022-10-05T16:37:16.782Z,99441.05
2022-10-05T16:40:05.607Z,99447.65
2022-10-05T16:42:46.690Z,99448.95
2022-10-05T16:45:18.277Z,99444.52
2022-10-05T16:48:00.048Z,99442.34
2022-10-05T16:50:54.813Z,99441.09
2022-10-05T16:53:31.751Z,99447.02
2022-10-05T16:56:25.355Z,99442.59
2022-10-05T16:59:25.893Z,99441.20
2022-10-05T17:02:43.525Z,99437.18
2022-10-05T17:05:48.852Z,99434.02
2022-10-05T17:08:39.200Z,99436.77
2022-10-05T17:11:25.794Z,99439.11
2022-10-05T17:14:27.864Z,99437.54
2022-10-05T17:17:31.213Z,99437.23
2022-10-05T17:20:25.318Z,99434.02
2022-10-05T17:23:11.878Z,99435.94
2022-10-05T17:25:55.489Z,99434.65
2022-10-05T17:28:37.934Z,99436.63
2022-10-05T17:31:17.765Z,99442.75
2022-10-05T17:34:07.354Z,99438.77
2022-10-05T17:36:48.373Z,99436.23
2022-10-05T17:39:17.669Z,99432.79
2022-10-05T17:41:46.841Z,99432.63
2022-10-05T17:44:21.469Z,99431.65
2022-10-05T17:46:52.479Z,99431.82
2022-10-05T17:49:23.006Z,99427.46
2022-10-05T17:52:10.031Z,99430.73
2022-10-05T17:55:02.767Z,99428.26
2022-10-05T17:57:33.925Z,99427.54
2022-10-05T18:00:03.836Z,99429.09
2022-10-05T18:02:40.176Z,99431.39
2022-10-05T18:05:17.361Z,99431.02
2022-10-05T18:07:50.886Z,99434.99
2022-10-05T18:10:29.283Z,99433.27
2022-10-05T18:13:00.875Z,99435.48
2022-10-05T18:15:28.933Z,99436.96
2022-10-05T18:18:19.909Z,99436.48
2022-10-05T18:21:13.400Z,99433.63
2022-10-05T18:24:09.457Z,99427.34
2022-10-05T18:26:48.645Z,99428.02
2022-10-05T18:29:50.481Z,99430.21
2022-10-05T18:32:49.437Z,99426.21
2022-10-05T18:35:27.152Z,99420.50
2022-10-05T18:38:13.736Z,99423.34
2022-10-05T18:41:09.751Z,99417.10
2022-10-05T18:44:00.756Z,99422.98
2022-10-05T18:46:39.643Z,99425.84
2022-10-05T18:49:38.677Z,99425.58
2022-10-05T18:52:12.625Z,99423.66
2022-10-05T18:54:54.215Z,99425.05
2022-10-05T18:57:25.827Z,99422.85
2022-10-05T19:00:06.909Z,99425.48
2022-10-05T19:02:40.627Z,99423.09
2022-10-05T19:05:29.355Z,99422.46
2022-10-05T19:08:25.422Z,99421.98
2022-10-05T19:11:00.880Z,99423.48
2022-10-05T19:13:51.091Z,99421.02
2022-10-05T19:16:58.902Z,99419.61
2022-10-05T19:19:50.631Z,99419.77
2022-10-05T19:22:25.183Z,99424.86
2022-10-05T19:25:21.030Z,99423.79
2022-10-05T19:28:12.619Z,99424.37
2022-10-05T19:30:50.952Z,99425.82
2022-10-05T19:33:27.875Z,99426.80
2022-10-05T19:36:20.990Z,99423.16
2022-10-05T19:38:55.010Z,99422.80
2022-10-05T19:41:29.926Z,99427.40
2022-10-05T19:44:06.639Z,99429.71
2022-10-05T19:46:42.142Z,99430.89
2022-10-05T19:49:10.946Z,99431.91
2022-10-05T19:51:50.817Z,99429.50
2022-10-05T19:54:25.902Z,99425.51
2022-10-05T19:56:55.761Z,99430.92
2022-10-05T19:59:31.459Z,99431.30
2022-10-05T20:02:00.072Z,99428.30
2022-10-05T20:04:40.871Z,99429.42
2022-10-05T20:07:17.957Z,99427.88
2022-10-05T20:09:55.419Z,99434.80
2022-10-05T20:13:15.485Z,99433.06
2022-10-05T20:16:35.489Z,99433.29
2022-10-05T20:19:24.456Z,99438.50
2022-10-05T20:21:59.863Z,99442.74
2022-10-05T20:24:30.415Z,99445.69
2022-10-05T20:27:05.887Z,99444.19
2022-10-05T20:29:40.063Z,99444.79
2022-10-05T20:32:18.111Z,99447.95
2022-10-05T20:34:48.019Z,99447.23
2022-10-05T20:37:18.285Z,99451.19
2022-10-05T20:39:47.980Z,99455.18
2022-10-05T20:42:16.264Z,99456.02
2022-10-05T20:44:44.928Z,99458.81
2022-10-05T20:47:13.875Z,99456.08
2022-10-05T20:49:42.265Z,99452.70
2022-10-05T20:52:11.833Z,99453.55
2022-10-05T20:54:39.995Z,99454.71
2022-10-05T20:57:09.617Z,99453.35
2022-10-05T20:59:37.987Z,99451.98
2022-10-05T21:02:06.776Z,99454.34
2022-10-05T21:04:42.872Z,99456.74
2022-10-05T21:07:11.882Z,99458.23
2022-10-05T21:09:42.486Z,99457.28
2022-10-05T21:12:11.205Z,99456.20
2022-10-05T21:14:43.296Z,99457.71
2022-10-05T21:17:12.110Z,99460.02
2022-10-05T21:19:40.485Z,99459.27
2022-10-05T21:22:10.045Z,99461.89
2022-10-05T21:24:39.805Z,99463.05
2022-10-05T21:27:09.893Z,99466.10
2022-10-05T21:29:41.224Z,99464.67
2022-10-05T21:32:11.905Z,99465.80
2022-10-05T21:34:41.228Z,99465.94
2022-10-05T21:37:09.457Z,99469.09
2022-10-05T21:39:37.573Z,99474.29
2022-10-05T21:42:05.925Z,99470.91
2022-10-05T21:44:33.983Z,99474.08
2022-10-05T21:47:04.379Z,99473.98
2022-10-05T21:49:32.888Z,99469.39
2022-10-05T21:52:02.003Z,99473.55
2022-10-05T21:54:32.594Z,99474.23
2022-10-05T21:57:01.129Z,99479.25
2022-10-05T21:59:32.645Z,99476.30
2022-10-05T22:02:00.828Z,99478.88
2022-10-05T22:04:29.422Z,99479.08
2022-10-05T22:06:57.738Z,99479.58
2022-10-05T22:09:25.997Z,99480.72
2022-10-05T22:11:55.043Z,99483.52
2022-10-05T22:14:23.202Z,99484.65
2022-10-05T22:16:51.682Z,99485.35
2022-10-05T22:19:20.438Z,99490.95
2022-10-05T22:21:48.556Z,99487.02
2022-10-05T22:24:16.625Z,99489.40
2022-10-05T22:26:48.064Z,99488.78
2022-10-05T22:29:17.012Z,99491.21
2022-10-05T22:31:48.831Z,99492.77
2022-10-05T22:34:18.091Z,99490.08
2022-10-05T22:36:47.596Z,99494.70
2022-10-05T22:39:16.633Z,99496.48
2022-10-05T22:41:45.170Z,99499.45
2022-10-05T22:44:13.538Z,99503.82
2022-10-05T22:46:41.756Z,99504.45
2022-10-05T22:49:09.972Z,99506.27
2022-10-05T22:51:38.163Z,99508.77
2022-10-05T22:54:06.535Z,99510.81
2022-10-05T22:56:34.661Z,99512.13
2022-10-05T22:59:02.992Z,99517.14
2022-10-05T23:01:31.428Z,99516.37
2022-10-05T23:03:59.738Z,99523.45
2022-10-05T23:06:27.952Z,99521.84
2022-10-05T23:08:56.138Z,99524.82
2022-10-05T23:11:27.750Z,99528.20
2022-10-05T23:13:57.590Z,99525.77
2022-10-05T23:16:28.251Z,99531.70
2022-10-05T23:18:56.479Z,99534.23
2022-10-05T23:21:27.211Z,99541.86
2022-10-05T23:23:55.987Z,99544.77
2022-10-05T23:26:27.481Z,99542.17
2022-10-05T23:28:55.855Z,99542.18
2022-10-05T23:31:30.489Z,99542.73
2022-10-05T23:33:58.710Z,99546.48
2022-10-05T23:36:32.255Z,99545.30
2022-10-05T23:39:00.834Z,99550.86
2022-10-05T23:41:29.129Z,99551.48
2022-10-05T23:43:57.218Z,99557.13
2022-10-05T23:46:25.699Z,99552.59
2022-10-05T23:48:53.787Z,99553.35
2022-10-05T23:51:22.022Z,99555.48
2022-10-05T23:53:50.480Z,99553.83
2022-10-05T23:56:18.551Z,99559.40
2022-10-05T23:58:46.606Z,99557.88
